Time;durP1;ratioP1;P1;durP2;ratioP2;P2;SDS_P1;SDS_P2;PMS_P1;PMS_P2;Temp;Humidity;BMP_temperature;BMP_pressure;BME280_temperature;BME280_humidity;BME280_pressure;Samples;Min_cycle;Max_cycle;Signal;HPM_P1;HPM_P2
2024/02/18 02:35:32;;;;;;;1.17;0.80;;;;;;;6.81;87.77;102455.63;6132990;23;20067;-89
2024/02/18 02:37:58;;;;;;;2.72;0.93;;;;;;;6.88;87.89;102444.53;6104414;23;20057;-90
2024/02/18 02:40:29;;;;;;;1.65;1.00;;;;;;;6.86;87.73;102444.84;6152095;23;20020;-89
2024/02/18 02:42:58;;;;;;;1.27;0.60;;;;;;;6.84;88.26;102441.66;6145366;23;20023;-89
2024/02/18 02:45:24;;;;;;;0.73;0.73;;;;;;;6.70;88.45;102430.00;6118497;23;20012;-90
2024/02/18 02:47:51;;;;;;;1.48;1.23;;;;;;;6.76;88.98;102423.53;6147939;23;20033;-89
2024/02/18 02:50:17;;;;;;;3.50;0.88;;;;;;;6.85;88.49;102424.47;6164910;23;20013;-89
2024/02/18 02:52:51;;;;;;;6.10;0.95;;;;;;;6.82;88.43;102418.91;6121711;23;19997;-89
2024/02/18 02:55:17;;;;;;;1.38;0.95;;;;;;;6.87;88.96;102416.97;6124201;23;20025;-90
2024/02/18 02:57:48;;;;;;;0.95;0.75;;;;;;;7.03;88.11;102420.25;6127999;23;20009;-89
2024/02/18 03:00:14;;;;;;;4.40;0.98;;;;;;;7.00;87.51;102415.47;6152081;23;20055;-92
2024/02/18 03:02:42;;;;;;;2.95;1.40;;;;;;;7.01;87.62;102417.06;6154405;23;20076;-92
2024/02/18 03:05:14;;;;;;;3.00;0.68;;;;;;;7.01;87.78;102423.22;6152419;23;20044;-92
2024/02/18 03:07:40;;;;;;;6.05;0.88;;;;;;;6.78;88.84;102405.28;6149490;23;20056;-90
2024/02/18 03:10:11;;;;;;;1.83;0.73;;;;;;;6.96;88.58;102417.94;6154774;23;20001;-89
2024/02/18 03:12:43;;;;;;;1.80;0.90;;;;;;;7.08;87.99;102433.59;6133714;23;20088;-90
2024/02/18 03:15:09;;;;;;;3.22;0.68;;;;;;;6.99;88.17;102424.59;6103320;23;20025;-93
2024/02/18 03:17:37;;;;;;;0.68;0.68;;;;;;;7.08;87.56;102410.28;6104556;23;20550;-93
2024/02/18 03:20:07;;;;;;;1.38;0.93;;;;;;;7.05;88.28;102410.06;6143583;23;20009;-89
2024/02/18 03:22:34;;;;;;;1.00;0.90;;;;;;;6.98;87.93;102397.03;6148608;23;20028;-89
2024/02/18 03:25:00;;;;;;;1.05;0.80;;;;;;;7.03;88.68;102380.88;6162209;23;20317;-89
2024/02/18 03:27:25;;;;;;;2.15;0.93;;;;;;;7.10;87.49;102383.22;6141379;23;20342;-89
2024/02/18 03:29:51;;;;;;;2.90;0.63;;;;;;;7.11;87.79;102379.44;6130144;23;20039;-89
2024/02/18 03:32:19;;;;;;;1.42;0.82;;;;;;;6.98;88.41;102375.59;6082081;23;20085;-92
2024/02/18 03:34:45;;;;;;;2.08;1.13;;;;;;;7.04;87.46;102376.34;6102910;23;20140;-91
2024/02/18 03:37:10;;;;;;;3.95;1.30;;;;;;;6.86;87.63;102387.81;6117021;23;20021;-89
2024/02/18 03:39:37;;;;;;;4.78;1.42;;;;;;;6.98;88.77;102393.56;6179568;23;20066;-89
2024/02/18 03:42:04;;;;;;;0.63;0.63;;;;;;;7.07;87.46;102379.22;6128381;23;20394;-89
2024/02/18 03:44:33;;;;;;;1.30;0.77;;;;;;;7.01;87.87;102380.38;6125131;23;20013;-90
2024/02/18 03:46:58;;;;;;;2.70;0.80;;;;;;;7.10;87.16;102372.50;6077737;23;20076;-90
2024/02/18 03:49:24;;;;;;;2.47;1.65;;;;;;;7.14;86.62;102382.34;6131256;23;20077;-90
2024/02/18 03:51:49;;;;;;;4.13;0.95;;;;;;;6.97;87.65;102376.69;6129690;23;20013;-91
2024/02/18 03:54:15;;;;;;;2.03;1.00;;;;;;;6.98;87.43;102356.06;6134068;23;20009;-90
2024/02/18 03:56:41;;;;;;;0.80;0.70;;;;;;;7.03;87.31;102354.09;6154617;23;20013;-90
2024/02/18 03:59:10;;;;;;;2.30;1.00;;;;;;;6.85;87.74;102346.84;6156181;23;20013;-91
2024/02/18 04:01:35;;;;;;;0.65;0.65;;;;;;;6.90;88.02;102357.50;6154521;23;20031;-92
2024/02/18 04:04:01;;;;;;;1.38;0.88;;;;;;;6.97;87.93;102354.44;6156600;23;20005;-90
2024/02/18 04:06:26;;;;;;;1.27;0.80;;;;;;;7.16;86.82;102348.03;6156464;23;20005;-89
2024/02/18 04:08:52;;;;;;;0.95;0.77;;;;;;;6.96;87.38;102347.50;6179035;23;20013;-90
2024/02/18 04:11:17;;;;;;;4.43;0.57;;;;;;;7.07;87.65;102349.78;6158485;23;20013;-90
2024/02/18 04:13:43;;;;;;;4.15;0.70;;;;;;;7.13;86.98;102362.00;6085079;23;20029;-90
2024/02/18 04:16:09;;;;;;;0.75;0.60;;;;;;;6.91;88.13;102355.63;6107723;23;20062;-92
2024/02/18 04:18:35;;;;;;;1.30;1.05;;;;;;;7.01;87.60;102350.91;6106594;23;20012;-90
2024/02/18 04:21:00;;;;;;;1.90;0.80;;;;;;;6.91;87.85;102343.00;6143581;23;20013;-89
2024/02/18 04:23:28;;;;;;;4.72;0.95;;;;;;;6.93;87.66;102340.84;6181659;23;20424;-90
2024/02/18 04:25:54;;;;;;;2.70;1.45;;;;;;;6.84;88.51;102336.44;6153290;23;20096;-90
2024/02/18 04:28:22;;;;;;;1.02;0.93;;;;;;;6.91;88.38;102340.34;6157568;23;20048;-90
2024/02/18 04:30:47;;;;;;;2.05;1.00;;;;;;;6.87;88.32;102342.00;6132771;23;20017;-91
2024/02/18 04:33:13;;;;;;;1.10;0.98;;;;;;;6.92;88.37;102338.47;6096159;23;20400;-90
2024/02/18 04:35:38;;;;;;;2.67;1.30;;;;;;;6.90;88.15;102336.09;6127472;23;20013;-91
2024/02/18 04:38:06;;;;;;;2.42;0.82;;;;;;;6.85;88.55;102333.44;6144478;23;20021;-90
2024/02/18 04:40:31;;;;;;;6.15;1.42;;;;;;;6.94;88.67;102326.38;6138955;23;20001;-90
2024/02/18 04:42:57;;;;;;;1.02;0.93;;;;;;;6.91;89.11;102331.53;6156087;23;20012;-90
2024/02/18 04:45:26;;;;;;;10.68;1.83;;;;;;;6.86;88.97;102320.88;6128010;23;20055;-90
2024/02/18 04:47:52;;;;;;;0.93;0.82;;;;;;;7.00;88.42;102324.44;6149594;23;20027;-90
2024/02/18 04:50:17;;;;;;;0.57;0.57;;;;;;;7.11;88.19;102326.69;6178178;23;20033;-89
2024/02/18 04:52:43;;;;;;;2.92;1.10;;;;;;;7.07;88.75;102320.31;6179470;23;20012;-90
2024/02/18 04:55:10;;;;;;;1.73;0.90;;;;;;;6.88;89.11;102305.31;6163816;23;20104;-90
2024/02/18 04:57:35;;;;;;;1.92;1.17;;;;;;;6.98;89.90;102314.00;6121099;23;20036;-90
2024/02/18 05:00:12;;;;;;;3.80;1.45;;;;;;;6.96;89.85;102302.78;6140077;23;20012;-93
2024/02/18 05:02:47;;;;;;;1.52;1.40;;;;;;;7.24;88.71;102303.72;6139596;23;20025;-89
2024/02/18 05:05:13;;;;;;;1.83;1.05;;;;;;;7.15;88.62;102286.72;6138709;23;20005;-90
2024/02/18 05:07:49;;;;;;;2.10;0.90;;;;;;;7.18;89.35;102289.59;6145495;23;20043;-90
2024/02/18 05:10:14;;;;;;;4.07;1.50;;;;;;;7.12;89.00;102284.63;6172298;23;20016;-92
2024/02/18 05:12:40;;;;;;;1.58;1.17;;;;;;;7.19;88.50;102285.03;6169564;23;20084;-89
2024/02/18 05:15:06;;;;;;;2.90;1.20;;;;;;;7.16;89.06;102278.38;6169050;23;20009;-90
2024/02/18 05:17:41;;;;;;;2.72;1.80;;;;;;;7.16;89.52;102280.28;6181356;23;20056;-89
2024/02/18 05:20:10;;;;;;;2.35;0.80;;;;;;;7.09;89.54;102280.63;6118938;23;20291;-89
2024/02/18 05:22:40;;;;;;;2.33;1.23;;;;;;;7.16;90.24;102281.06;6139720;23;20436;-89
2024/02/18 05:25:06;;;;;;;5.53;1.40;;;;;;;7.20;90.34;102275.94;6145649;23;20036;-89
2024/02/18 05:27:35;;;;;;;2.83;2.03;;;;;;;7.19;90.45;102275.13;6144717;23;20066;-90
2024/02/18 05:30:04;;;;;;;1.27;0.98;;;;;;;6.96;92.02;102269.84;6150973;23;20024;-90
2024/02/18 05:32:30;;;;;;;3.50;1.52;;;;;;;7.23;91.13;102259.25;6149366;23;20020;-89
2024/02/18 05:34:56;;;;;;;4.00;1.38;;;;;;;7.20;90.56;102262.53;6152508;23;20017;-89
2024/02/18 05:37:22;;;;;;;8.95;2.30;;;;;;;7.35;91.09;102253.44;6135899;23;20013;-93
2024/02/18 05:39:56;;;;;;;2.38;1.15;;;;;;;7.28;91.92;102245.78;6105896;23;20020;-89
2024/02/18 05:42:21;;;;;;;6.40;2.05;;;;;;;7.29;92.06;102242.81;6093605;23;20524;-89
2024/02/18 05:44:47;;;;;;;4.60;1.88;;;;;;;7.35;92.72;102240.06;6114451;23;20040;-90
2024/02/18 05:47:13;;;;;;;3.42;1.88;;;;;;;7.50;92.27;102243.28;6096584;23;20513;-90
2024/02/18 05:49:38;;;;;;;9.25;1.88;;;;;;;7.50;92.54;102239.78;6104644;23;20013;-90
2024/02/18 05:52:09;;;;;;;5.35;1.73;;;;;;;7.51;92.55;102236.81;6099319;23;20343;-90
2024/02/18 05:54:34;;;;;;;3.40;2.20;;;;;;;7.59;92.35;102244.19;6139855;23;20008;-89
2024/02/18 05:57:04;;;;;;;3.65;1.85;;;;;;;7.55;92.77;102239.72;6138981;23;21345;-90
2024/02/18 05:59:32;;;;;;;1.10;1.10;;;;;;;7.57;92.92;102226.81;6147700;23;20013;-91
2024/02/18 06:02:04;;;;;;;4.28;1.48;;;;;;;7.52;93.61;102230.38;6146854;23;20088;-89
2024/02/18 06:04:29;;;;;;;4.55;1.50;;;;;;;7.60;93.34;102221.66;6178880;23;20012;-89
2024/02/18 06:07:01;;;;;;;3.38;2.05;;;;;;;7.49;94.17;102220.22;6149140;23;20055;-89
2024/02/18 06:09:27;;;;;;;4.00;2.42;;;;;;;7.64;94.18;102214.63;6151921;23;20099;-89
2024/02/18 06:11:52;;;;;;;4.55;2.35;;;;;;;7.63;94.19;102210.31;6149485;23;20091;-90
2024/02/18 06:14:19;;;;;;;6.82;2.22;;;;;;;7.65;94.28;102199.31;6114712;23;20005;-93
2024/02/18 06:16:44;;;;;;;4.65;1.73;;;;;;;7.65;94.40;102213.50;6101338;23;20694;-93
2024/02/18 06:19:10;;;;;;;5.10;1.98;;;;;;;7.65;93.91;102212.72;6128322;23;20447;-90
2024/02/18 06:21:36;;;;;;;10.80;2.17;;;;;;;7.70;94.04;102205.38;6101126;23;20017;-90
2024/02/18 06:24:02;;;;;;;9.00;2.45;;;;;;;7.55;94.53;102192.25;6140021;23;20005;-89
2024/02/18 06:26:28;;;;;;;9.60;2.75;;;;;;;7.66;95.18;102191.00;6178154;23;20397;-90
2024/02/18 06:28:57;;;;;;;10.80;2.95;;;;;;;7.62;94.84;102184.63;6130648;23;20012;-89
2024/02/18 06:31:22;;;;;;;3.92;1.65;;;;;;;7.70;94.26;102178.56;6167560;23;20935;-90
2024/02/18 06:33:48;;;;;;;5.90;2.47;;;;;;;7.79;94.23;102176.78;6107879;23;20009;-90
2024/02/18 06:36:15;;;;;;;5.10;2.30;;;;;;;7.65;94.63;102169.81;6105283;23;20321;-90
2024/02/18 06:38:46;;;;;;;4.35;2.08;;;;;;;7.63;94.64;102163.94;6118527;23;20240;-89
2024/02/18 06:41:13;;;;;;;7.32;2.10;;;;;;;7.74;94.41;102160.78;6122244;23;20013;-90
2024/02/18 06:43:41;;;;;;;4.72;2.22;;;;;;;7.55;94.59;102148.59;6140398;23;20009;-90
2024/02/18 06:46:07;;;;;;;8.10;2.38;;;;;;;7.50;95.03;102148.66;6150232;23;20008;-90
2024/02/18 06:48:33;;;;;;;5.70;1.92;;;;;;;7.64;95.15;102147.59;6128075;23;20550;-90
2024/02/18 06:50:59;;;;;;;3.78;1.80;;;;;;;7.80;94.74;102142.72;6147981;23;20008;-92
2024/02/18 06:53:24;;;;;;;4.22;2.25;;;;;;;7.86;93.89;102139.63;6171078;23;20009;-90
2024/02/18 06:55:50;;;;;;;1.90;1.27;;;;;;;7.85;94.26;102137.25;6179592;23;20009;-89
2024/02/18 06:58:19;;;;;;;4.18;1.73;;;;;;;7.99;93.43;102132.69;6127474;23;20124;-91
2024/02/18 07:00:45;;;;;;;7.00;2.55;;;;;;;7.94;93.59;102135.44;6105156;23;20391;-90
2024/02/18 07:03:10;;;;;;;4.82;1.80;;;;;;;7.89;93.65;102124.84;6131778;23;20059;-90
2024/02/18 07:05:36;;;;;;;4.82;2.33;;;;;;;7.91;93.88;102123.44;6110059;23;20431;-90
2024/02/18 07:08:04;;;;;;;3.70;1.95;;;;;;;7.84;94.92;102119.59;6160941;23;20241;-91
2024/02/18 07:10:32;;;;;;;6.78;2.70;;;;;;;7.88;94.87;102124.03;6138648;23;20092;-90
2024/02/18 07:12:58;;;;;;;6.35;2.50;;;;;;;7.90;94.79;102115.69;6099574;23;20013;-90
2024/02/18 07:15:24;;;;;;;5.78;3.03;;;;;;;8.04;94.68;102108.41;6103163;23;20008;-94
2024/02/18 07:17:49;;;;;;;5.78;2.40;;;;;;;8.08;94.08;102109.41;6104975;23;20005;-90
2024/02/18 07:20:15;;;;;;;5.72;2.30;;;;;;;7.95;95.23;102105.66;6124837;23;20001;-91
2024/02/18 07:22:44;;;;;;;6.75;1.88;;;;;;;7.90;95.78;102108.44;6149563;23;20032;-90
2024/02/18 07:25:10;;;;;;;4.80;2.45;;;;;;;8.08;95.50;102104.84;6151120;23;20013;-90
2024/02/18 07:27:36;;;;;;;8.52;2.90;;;;;;;8.07;95.07;102097.88;6156082;23;20001;-92
2024/02/18 07:30:03;;;;;;;3.58;2.28;;;;;;;7.92;95.90;102087.47;6100651;23;20048;-93
2024/02/18 07:32:28;;;;;;;1.40;1.13;;;;;;;8.07;96.07;102094.41;6105254;23;20009;-89
2024/02/18 07:34:54;;;;;;;1.80;1.70;;;;;;;8.13;95.35;102087.81;6101244;23;20384;-90
2024/02/18 07:37:20;;;;;;;10.40;3.00;;;;;;;8.12;95.29;102080.88;6125147;23;20036;-90
2024/02/18 07:39:46;;;;;;;13.07;3.40;;;;;;;8.10;96.00;102077.69;6153081;23;20009;-89
2024/02/18 07:42:11;;;;;;;4.85;2.42;;;;;;;8.23;95.89;102086.81;6150393;23;19997;-90
2024/02/18 07:44:37;;;;;;;6.03;2.22;;;;;;;8.22;95.88;102086.03;6109668;23;20017;-89
2024/02/18 07:47:06;;;;;;;5.22;2.55;;;;;;;8.06;96.82;102074.03;6129269;23;20017;-90
2024/02/18 07:49:32;;;;;;;5.68;2.30;;;;;;;8.27;96.08;102080.56;6101012;23;20343;-91
2024/02/18 07:51:58;;;;;;;9.38;3.08;;;;;;;8.32;96.13;102076.97;6104590;23;20019;-90
2024/02/18 07:54:23;;;;;;;3.92;2.42;;;;;;;8.29;96.42;102075.69;6126196;23;20020;-91
2024/02/18 07:56:52;;;;;;;6.70;2.95;;;;;;;8.30;96.80;102071.13;6152096;23;20012;-90
2024/02/18 07:59:18;;;;;;;8.25;3.33;;;;;;;8.29;96.49;102056.91;6162401;23;20009;-89
2024/02/18 08:01:44;;;;;;;7.40;2.75;;;;;;;8.46;96.41;102065.06;6152940;23;20100;-89
2024/02/18 08:04:11;;;;;;;8.25;3.30;;;;;;;8.40;96.19;102063.59;6117800;23;20005;-93
2024/02/18 08:06:36;;;;;;;11.45;2.60;;;;;;;8.48;96.49;102064.78;6132513;23;20096;-89
2024/02/18 08:09:03;;;;;;;4.63;1.65;;;;;;;8.49;96.02;102061.00;6105353;23;20096;-93
2024/02/18 08:11:29;;;;;;;5.68;2.63;;;;;;;8.47;96.52;102055.94;6107093;23;20017;-89
2024/02/18 08:19:31;;;;;;;11.07;3.97;;;;;;;8.48;96.69;102051.38;6181366;23;20044;-87
2024/02/18 08:22:01;;;;;;;6.05;3.28;;;;;;;8.55;96.61;102052.50;6188709;23;20024;-86
2024/02/18 08:24:27;;;;;;;7.03;3.42;;;;;;;8.60;96.77;102036.28;6171426;23;20035;-87
2024/02/18 08:26:53;;;;;;;6.28;2.80;;;;;;;8.58;96.66;102046.53;6212761;23;20004;-87
2024/02/18 08:29:18;;;;;;;8.98;3.15;;;;;;;8.62;97.09;102039.44;6140413;23;20008;-87
2024/02/18 08:31:47;;;;;;;7.18;2.70;;;;;;;8.71;97.01;102037.59;6162172;23;20083;-87
2024/02/18 08:34:13;;;;;;;7.93;2.83;;;;;;;8.72;97.01;102041.06;6135281;23;20043;-86
2024/02/18 08:36:38;;;;;;;5.55;2.40;;;;;;;8.72;97.12;102031.13;6156882;23;20024;-86
2024/02/18 08:39:07;;;;;;;10.80;3.47;;;;;;;8.89;96.31;102030.41;6170646;23;20012;-87
2024/02/18 08:41:43;;;;;;;12.00;3.35;;;;;;;8.91;96.20;102026.31;6177035;23;20095;-87
2024/02/18 08:44:08;;;;;;;13.05;4.88;;;;;;;8.91;96.23;102025.53;6136760;23;20032;-87
2024/02/18 08:46:36;;;;;;;9.93;3.47;;;;;;;8.74;97.33;102026.25;6150647;23;20392;-85
2024/02/18 08:49:23;;;;;;;9.75;4.10;;;;;;;8.84;97.03;102020.63;6129422;23;20009;-87
2024/02/18 08:52:19;;;;;;;8.13;3.70;;;;;;;8.91;97.19;102010.22;6162847;23;20016;-87
2024/02/18 08:55:09;;;;;;;8.95;4.30;;;;;;;8.89;97.01;102008.94;6209479;23;20019;-87
2024/02/18 08:57:51;;;;;;;10.80;4.03;;;;;;;9.00;96.98;102000.28;6195089;23;20012;-88
2024/02/18 09:00:20;;;;;;;8.25;3.03;;;;;;;9.12;96.34;102004.28;6136064;23;20347;-88
2024/02/18 09:03:14;;;;;;;10.13;3.80;;;;;;;9.14;96.29;101994.81;6126978;23;20012;-88
2024/02/18 09:08:35;;;;;;;10.55;3.30;;;;;;;9.10;97.37;102007.28;6186312;23;20082;-88
2024/02/18 09:11:41;;;;;;;9.38;4.00;;;;;;;9.10;97.17;101991.94;6205129;23;20020;-89
2024/02/18 09:14:38;;;;;;;11.18;3.95;;;;;;;9.17;96.95;101990.69;6183345;23;20023;-89
2024/02/18 09:17:06;;;;;;;11.27;3.42;;;;;;;9.29;96.50;101993.59;6192376;23;20986;-88
2024/02/18 09:19:43;;;;;;;11.65;4.65;;;;;;;9.33;96.82;101986.50;6165072;23;20008;-88
2024/02/18 09:22:11;;;;;;;11.25;3.70;;;;;;;9.40;96.36;101979.53;6136444;23;20015;-89
2024/02/18 09:24:40;;;;;;;9.82;4.45;;;;;;;9.38;96.37;101970.19;6237469;23;20019;-89
2024/02/18 09:27:06;;;;;;;6.38;2.60;;;;;;;9.42;96.47;101976.53;6191020;23;20004;-89
2024/02/18 09:29:32;;;;;;;10.60;4.43;;;;;;;9.55;96.12;101976.41;6137170;23;20004;-88
2024/02/18 09:32:03;;;;;;;10.75;4.05;;;;;;;9.56;95.66;101977.19;6135656;23;20012;-89
2024/02/18 09:34:34;;;;;;;12.40;3.63;;;;;;;9.63;95.20;101974.81;6156606;23;20051;-88
2024/02/18 09:37:00;;;;;;;8.85;3.72;;;;;;;9.50;96.35;101962.31;6144283;23;20018;-89
2024/02/18 09:39:28;;;;;;;8.02;3.65;;;;;;;9.56;95.78;101961.06;6164657;23;20000;-88
2024/02/18 09:42:06;;;;;;;9.82;3.85;;;;;;;9.61;96.17;101968.97;6113142;23;20016;-88
2024/02/18 09:44:34;;;;;;;7.75;3.30;;;;;;;9.72;95.85;101960.25;6150617;23;20016;-83
2024/02/18 09:47:02;;;;;;;7.22;3.17;;;;;;;9.82;95.79;101953.78;6162771;22;19996;-85
2024/02/18 09:49:39;;;;;;;7.60;3.00;;;;;;;9.87;95.36;101953.63;6115886;23;20054;-87
2024/02/18 09:52:11;;;;;;;11.13;3.90;;;;;;;9.93;95.09;101955.81;6191807;23;20315;-88
2024/02/18 09:54:39;;;;;;;6.40;3.05;;;;;;;9.95;95.09;101950.13;6209739;23;20091;-87
2024/02/18 09:57:07;;;;;;;9.18;3.50;;;;;;;10.08;94.67;101953.75;6171152;23;20012;-87
2024/02/18 09:59:56;;;;;;;;;;;;;;;10.17;94.78;101951.88;6171862;23;20020;-87
2024/02/18 10:02:27;;;;;;;9.95;3.35;;;;;;;10.26;94.21;101952.66;6145003;23;20543;-87
2024/02/18 10:04:58;;;;;;;8.40;3.10;;;;;;;10.33;93.73;101956.44;6152639;23;20812;-87
2024/02/18 10:07:27;;;;;;;9.15;3.40;;;;;;;10.33;94.23;101955.66;6145423;23;20058;-87
2024/02/18 10:09:57;;;;;;;6.95;2.50;;;;;;;10.40;94.34;101945.97;6167289;23;20066;-88
2024/02/18 10:12:23;;;;;;;10.15;4.45;;;;;;;10.45;94.11;101936.94;6171147;23;20023;-87
2024/02/18 10:15:01;;;;;;;9.00;4.18;;;;;;;10.48;94.46;101931.69;6201699;23;20012;-87
2024/02/18 10:17:32;;;;;;;9.23;3.88;;;;;;;10.55;94.37;101929.28;6185478;23;20008;-87
2024/02/18 10:19:58;;;;;;;6.57;3.25;;;;;;;10.55;94.89;101928.50;6163284;23;20337;-87
2024/02/18 10:22:26;;;;;;;11.40;4.20;;;;;;;10.66;94.44;101918.94;6192563;23;19996;-87
2024/02/18 10:25:23;;;;;;;8.63;4.18;;;;;;;10.67;94.55;101926.69;6199269;23;20027;-87
2024/02/18 10:28:02;;;;;;;8.25;3.58;;;;;;;10.69;93.97;101918.28;6145385;23;20016;-86
2024/02/18 10:30:36;;;;;;;11.65;3.78;;;;;;;10.76;94.43;101908.56;6148674;23;20023;-86
2024/02/18 10:33:04;;;;;;;7.53;3.63;;;;;;;10.69;95.43;101896.72;6197599;23;20044;-87
2024/02/18 10:35:33;;;;;;;7.60;3.33;;;;;;;10.78;94.51;101900.19;6199901;23;20763;-87
2024/02/18 10:38:24;;;;;;;9.02;3.38;;;;;;;10.77;94.67;101891.31;6172393;23;20020;-87
2024/02/18 10:41:35;;;;;;;9.27;3.83;;;;;;;10.82;95.19;101883.03;6195583;23;20023;-86
2024/02/18 10:44:22;;;;;;;7.22;3.53;;;;;;;10.83;95.32;101881.13;6173314;23;20015;-90
2024/02/18 10:47:49;;;;;;;7.78;2.58;;;;;;;10.76;95.70;101870.84;6182411;23;20015;-91
2024/02/18 10:54:13;;;;;;;11.98;4.40;;;;;;;10.81;96.05;101856.41;6189849;23;20095;-88
2024/02/18 10:57:14;;;;;;;6.63;3.45;;;;;;;10.87;97.21;101853.22;6124584;23;20729;-87
2024/02/18 11:00:41;;;;;;;7.40;3.88;;;;;;;11.10;96.85;101858.28;6119990;23;20043;-88
2024/02/18 11:03:30;;;;;;;13.32;4.80;;;;;;;11.01;96.05;101852.19;6144095;23;20742;-87
2024/02/18 11:06:13;;;;;;;8.38;3.30;;;;;;;11.11;96.07;101841.78;6193698;23;20012;-86
2024/02/18 11:08:47;;;;;;;9.38;3.97;;;;;;;11.04;96.57;101838.81;6137521;23;20019;-86
2024/02/18 11:20:24;;;;;;;11.02;3.38;;;;;;;11.07;98.28;101819.28;6179427;23;20250;-87
2024/02/18 12:38:13;;;;;;;6.97;3.22;;;;;;;11.61;98.48;101685.22;6180850;22;20105;-89
2024/02/18 12:41:26;;;;;;;9.27;2.97;;;;;;;11.65;98.64;101676.13;6166594;23;20051;-88
2024/02/18 12:44:20;;;;;;;7.00;2.88;;;;;;;11.79;98.63;101675.78;6137663;23;20019;-89
2024/02/18 12:47:29;;;;;;;7.32;2.58;;;;;;;11.76;98.14;101671.06;6162025;23;20012;-88
2024/02/18 12:50:14;;;;;;;5.60;2.03;;;;;;;11.70;98.61;101664.31;6160557;23;20490;-86
2024/02/18 12:53:12;;;;;;;5.05;2.28;;;;;;;11.64;99.37;101661.03;6138290;23;20004;-88
2024/02/18 12:56:29;;;;;;;5.22;2.45;;;;;;;11.68;98.79;101658.47;6189276;23;20024;-88
2024/02/18 12:59:36;;;;;;;;;;;;;;;;;;;;;
2024/02/18 13:02:30;;;;;;;4.10;2.20;;;;;;;11.53;99.80;101638.34;6196811;23;20012;-87
2024/02/18 13:05:17;;;;;;;5.60;2.00;;;;;;;11.68;99.42;101632.28;6190182;23;20043;-87
2024/02/18 13:08:20;;;;;;;5.05;2.45;;;;;;;11.74;99.54;101630.16;6161375;23;20018;-87
2024/02/18 13:11:08;;;;;;;5.00;2.57;;;;;;;11.77;98.67;101624.06;6141200;23;20504;-87
2024/02/18 13:13:57;;;;;;;4.95;1.95;;;;;;;11.63;99.47;101624.38;6159882;23;20012;-87
2024/02/18 13:17:18;;;;;;;5.32;2.25;;;;;;;11.73;99.84;101617.75;6174970;23;20023;-89
2024/02/18 13:20:14;;;;;;;7.38;3.05;;;;;;;11.60;100.00;101605.38;6180309;23;20008;-87
2024/02/18 13:32:51;;;;;;;7.68;1.88;;;;;;;11.72;99.86;101581.13;6186127;23;20008;-90
2024/02/18 13:35:43;;;;;;;7.78;2.70;;;;;;;11.67;100.00;101565.94;6176213;23;20012;-90
2024/02/18 13:42:40;;;;;;;3.75;1.88;;;;;;;11.62;100.00;101560.75;6203772;23;20023;-91
2024/02/18 13:46:37;;;;;;;;;;;;;;;;;;;;;
2024/02/18 13:50:38;;;;;;;;;;;;;;;;;;;;;
2024/02/18 13:54:13;;;;;;;;;;;;;;;;;;;;;
2024/02/18 13:57:37;;;;;;;;;;;;;;;;;;;;;
2024/02/18 14:01:03;;;;;;;;;;;;;;;;;;;;;
2024/02/18 14:08:24;;;;;;;;;;;;;;;;;;;;;
2024/02/18 14:15:37;;;;;;;;;;;;;;;11.52;100.00;101493.78;6098513;23;20021;-93
2024/02/18 14:19:15;;;;;;;;;;;;;;;;;;;;;
2024/02/18 14:31:43;;;;;;;4.97;2.58;;;;;;;11.33;100.00;101449.63;5990363;23;20023;-92
2024/02/18 14:58:49;;;;;;;;;;;;;;;;;;;;;
2024/02/18 15:26:02;;;;;;;6.38;2.90;;;;;;;11.37;100.00;101343.47;6163693;23;20025;-89
2024/02/18 15:29:11;;;;;;;5.45;2.67;;;;;;;11.37;100.00;101334.56;6188413;23;20095;-90
2024/02/18 15:36:36;;;;;;;4.90;2.80;;;;;;;11.33;100.00;101325.59;6163174;23;20020;-89
2024/02/18 15:39:13;;;;;;;10.25;3.63;;;;;;;11.35;100.00;101315.25;6124946;23;20024;-90
2024/02/18 16:20:59;;;;;;;7.35;3.40;;;;;;;11.34;100.00;101217.41;6195387;22;20051;-87
2024/02/18 16:43:07;;;;;;;5.65;3.40;;;;;;;11.57;100.00;101167.16;6182056;23;20011;-87
2024/02/18 17:26:40;;;;;;;;;;;;;;;;;;;;;
2024/02/18 17:30:21;;;;;;;5.28;2.80;;;;;;;11.43;100.00;101093.19;5985987;23;20015;-88
2024/02/18 17:37:23;;;;;;;7.68;3.20;;;;;;;11.40;100.00;101080.41;6012391;23;20020;-87
2024/02/18 17:40:44;;;;;;;7.00;3.47;;;;;;;11.22;100.00;101068.41;5999615;23;20538;-88
2024/02/18 17:43:19;;;;;;;5.65;3.17;;;;;;;11.43;100.00;101064.31;6077666;23;20590;-88
2024/02/18 17:45:58;;;;;;;14.32;4.90;;;;;;;11.52;100.00;101064.13;6127939;23;20888;-86
2024/02/18 17:48:38;;;;;;;5.93;2.92;;;;;;;11.33;100.00;101053.28;6154885;23;20074;-85
2024/02/18 17:51:30;;;;;;;6.20;2.72;;;;;;;11.40;100.00;101050.75;6154385;23;20066;-83
2024/02/18 17:54:38;;;;;;;8.45;3.22;;;;;;;11.39;100.00;101047.28;6172036;23;20023;-85
2024/02/18 17:57:37;;;;;;;7.53;3.33;;;;;;;11.42;100.00;101051.19;6176451;23;20027;-83
2024/02/18 18:10:44;;;;;;;6.63;3.05;;;;;;;11.43;100.00;101023.06;6138867;23;20024;-85
2024/02/18 18:18:16;;;;;;;5.63;2.88;;;;;;;11.51;100.00;101017.50;6058242;23;20049;-84
2024/02/18 18:32:22;;;;;;;;;;;;;;;;;;;;;
2024/02/18 18:35:56;;;;;;;7.60;2.47;;;;;;;11.37;100.00;100995.59;6000901;23;20030;-85
2024/02/18 18:38:45;;;;;;;6.93;3.78;;;;;;;11.45;100.00;100989.25;6004322;23;20042;-88
2024/02/18 18:41:56;;;;;;;5.65;3.20;;;;;;;11.40;100.00;100988.75;5985952;23;20034;-88
2024/02/18 18:58:01;;;;;;;6.68;3.05;;;;;;;11.44;100.00;100965.34;6173655;22;20051;-83
2024/02/18 19:01:07;;;;;;;4.03;2.22;;;;;;;11.48;100.00;100950.78;6141536;23;20011;-83
2024/02/18 19:04:16;;;;;;;5.32;2.83;;;;;;;11.51;100.00;100943.91;6123450;23;20411;-84
2024/02/18 19:06:43;;;;;;;5.95;3.05;;;;;;;11.51;100.00;100946.59;6126086;23;21043;-84
2024/02/18 19:09:08;;;;;;;5.85;2.25;;;;;;;11.51;100.00;100941.19;6165735;23;20454;-83
2024/02/18 19:11:39;;;;;;;3.92;2.40;;;;;;;11.50;100.00;100935.03;6158207;23;20008;-84
2024/02/18 19:14:05;;;;;;;4.78;2.25;;;;;;;11.61;100.00;100924.47;6132992;23;20019;-83
2024/02/18 19:16:35;;;;;;;4.60;2.28;;;;;;;11.59;100.00;100926.72;6151039;23;20643;-84
2024/02/18 19:19:28;;;;;;;5.50;2.30;;;;;;;11.58;100.00;100925.94;6157995;23;20526;-86
2024/02/18 20:00:15;;;;;;;6.90;3.67;;;;;;;11.34;100.00;100866.09;6098234;23;20727;-87
2024/02/18 20:03:20;;;;;;;4.63;2.70;;;;;;;11.33;100.00;100868.03;6023892;23;20398;-88
2024/02/18 20:09:35;;;;;;;;;;;;;;;;;;;;;
2024/02/18 20:12:49;;;;;;;4.13;2.75;;;;;;;11.38;100.00;100848.09;6097139;23;20623;-89
2024/02/18 20:16:07;;;;;;;5.88;2.70;;;;;;;11.49;100.00;100843.69;6101459;23;20375;-89
2024/02/18 20:18:50;;;;;;;5.80;2.83;;;;;;;11.35;100.00;100843.41;6161859;23;20395;-86
2024/02/18 20:21:25;;;;;;;4.15;2.28;;;;;;;11.26;100.00;100834.75;6220787;23;20020;-88
2024/02/18 20:27:15;;;;;;;3.40;2.05;;;;;;;11.57;100.00;100830.00;6212510;23;20401;-85
2024/02/18 20:29:43;;;;;;;5.45;2.78;;;;;;;11.49;100.00;100827.50;6197135;23;20095;-86
2024/02/18 20:32:09;;;;;;;5.53;2.88;;;;;;;11.43;100.00;100837.78;6168420;23;20004;-86
2024/02/18 20:34:36;;;;;;;4.72;2.20;;;;;;;11.45;100.00;100832.03;6172012;23;20012;-87
2024/02/18 20:37:06;;;;;;;4.32;2.35;;;;;;;11.38;100.00;100834.63;6167656;23;20058;-86
2024/02/18 20:39:46;;;;;;;5.97;2.70;;;;;;;11.39;100.00;100828.84;6151718;23;20027;-87
2024/02/18 20:51:13;;;;;;;;;;;;;;;;;;;;;
2024/02/18 20:54:55;;;;;;;;;;;;;;;;;;;;;
2024/02/18 21:02:25;;;;;;;;;;;;;;;;;;;;;
2024/02/18 21:10:28;;;;;;;;;;;;;;;;;;;;;
2024/02/18 21:21:34;;;;;;;3.95;2.28;;;;;;;11.52;100.00;100818.69;6091888;23;20017;-87
2024/02/18 21:24:15;;;;;;;3.45;2.17;;;;;;;11.58;100.00;100817.25;6035787;23;20076;-87
2024/02/18 21:31:09;;;;;;;;;;;;;;;;;;;;;
2024/02/18 22:04:15;;;;;;;4.40;2.72;;;;;;;11.35;100.00;100800.25;6144970;22;20101;-88
2024/02/18 22:47:44;;;;;;;3.67;2.75;;;;;;;11.26;100.00;100805.88;6176374;22;20398;-86
2024/02/18 22:51:13;;;;;;;5.55;3.45;;;;;;;11.37;100.00;100806.06;6190861;23;20031;-86
2024/02/18 22:53:48;;;;;;;7.28;2.80;;;;;;;11.33;100.00;100805.22;6172491;23;20096;-86
2024/02/18 22:56:43;;;;;;;5.15;2.72;;;;;;;11.30;100.00;100812.13;6205523;23;20021;-86
2024/02/18 23:00:49;;;;;;;;;;;;;;;;;;;;;
2024/02/18 23:04:13;;;;;;;6.57;2.70;;;;;;;11.32;100.00;100812.56;6074250;23;20096;-87
2024/02/18 23:06:48;;;;;;;4.13;2.38;;;;;;;11.36;100.00;100815.31;6152465;23;20024;-86
